sensor_id;sensor_type;location;lat;lon;timestamp;pressure;altitude;pressure_sealevel;temperature;humidity
2761;BME280;15420;48.636;9.798;2022-07-04T00:01:05;96891.09;;;24.44;62.04
2761;BME280;15420;48.636;9.798;2022-07-04T00:03:31;96892.03;;;24.43;61.72
2761;BME280;15420;48.636;9.798;2022-07-04T00:05:57;96889.38;;;24.43;61.63
2761;BME280;15420;48.636;9.798;2022-07-04T00:08:23;96890.34;;;24.40;62.21
2761;BME280;15420;48.636;9.798;2022-07-04T00:10:49;96887.75;;;24.39;61.86
2761;BME280;15420;48.636;9.798;2022-07-04T00:13:15;96876.41;;;24.37;61.90
2761;BME280;15420;48.636;9.798;2022-07-04T00:15:41;96859.78;;;24.35;61.40
2761;BME280;15420;48.636;9.798;2022-07-04T00:18:07;96861.56;;;24.34;61.01
2761;BME280;15420;48.636;9.798;2022-07-04T00:20:34;96850.13;;;24.35;61.16
2761;BME280;15420;48.636;9.798;2022-07-04T00:23:02;96845.75;;;24.34;61.74
2761;BME280;15420;48.636;9.798;2022-07-04T00:25:29;96838.88;;;24.30;62.25
2761;BME280;15420;48.636;9.798;2022-07-04T00:27:55;96818.81;;;24.25;62.68
2761;BME280;15420;48.636;9.798;2022-07-04T00:30:21;96833.09;;;24.18;63.13
2761;BME280;15420;48.636;9.798;2022-07-04T00:32:47;96829.78;;;24.11;63.44
2761;BME280;15420;48.636;9.798;2022-07-04T00:35:13;96817.69;;;24.05;63.47
2761;BME280;15420;48.636;9.798;2022-07-04T00:37:43;96820.50;;;23.99;63.52
2761;BME280;15420;48.636;9.798;2022-07-04T00:40:10;96818.06;;;23.93;63.86
2761;BME280;15420;48.636;9.798;2022-07-04T00:42:36;96829.63;;;23.89;64.08
2761;BME280;15420;48.636;9.798;2022-07-04T00:45:05;96815.84;;;23.81;64.13
2761;BME280;15420;48.636;9.798;2022-07-04T00:47:31;96815.94;;;23.78;64.70
2761;BME280;15420;48.636;9.798;2022-07-04T00:49:58;96820.53;;;23.71;65.06
2761;BME280;15420;48.636;9.798;2022-07-04T00:52:24;96835.66;;;23.65;64.95
2761;BME280;15420;48.636;9.798;2022-07-04T00:54:50;96853.34;;;23.60;64.92
2761;BME280;15420;48.636;9.798;2022-07-04T00:57:16;96865.63;;;23.59;64.28
2761;BME280;15420;48.636;9.798;2022-07-04T00:59:42;96868.31;;;23.58;63.72
2761;BME280;15420;48.636;9.798;2022-07-04T01:02:11;96869.13;;;23.60;63.35
2761;BME280;15420;48.636;9.798;2022-07-04T01:04:39;96864.81;;;23.57;63.60
2761;BME280;15420;48.636;9.798;2022-07-04T01:07:06;96863.09;;;23.56;63.79
2761;BME280;15420;48.636;9.798;2022-07-04T01:09:35;96850.84;;;23.55;63.53
2761;BME280;15420;48.636;9.798;2022-07-04T01:12:02;96852.59;;;23.55;63.31
2761;BME280;15420;48.636;9.798;2022-07-04T01:14:31;96855.25;;;23.55;63.67
2761;BME280;15420;48.636;9.798;2022-07-04T01:16:59;96863.16;;;23.53;63.80
2761;BME280;15420;48.636;9.798;2022-07-04T01:19:26;96872.91;;;23.49;63.93
2761;BME280;15420;48.636;9.798;2022-07-04T01:21:54;96805.72;;;23.07;64.17
2761;BME280;15420;48.636;9.798;2022-07-04T01:24:22;96874.78;;;23.44;63.97
2761;BME280;15420;48.636;9.798;2022-07-04T01:26:50;96863.44;;;23.42;63.56
2761;BME280;15420;48.636;9.798;2022-07-04T01:29:18;96861.69;;;23.43;63.61
2761;BME280;15420;48.636;9.798;2022-07-04T01:31:48;96863.50;;;23.41;64.14
2761;BME280;15420;48.636;9.798;2022-07-04T01:34:16;96858.31;;;23.38;64.54
2761;BME280;15420;48.636;9.798;2022-07-04T01:36:44;96860.13;;;23.36;65.01
2761;BME280;15420;48.636;9.798;2022-07-04T01:39:14;96855.78;;;23.35;64.85
2761;BME280;15420;48.636;9.798;2022-07-04T01:41:43;96871.66;;;23.32;64.88
2761;BME280;15420;48.636;9.798;2022-07-04T01:44:09;96875.22;;;23.29;65.56
2761;BME280;15420;48.636;9.798;2022-07-04T01:46:37;96877.03;;;23.27;65.12
2761;BME280;15420;48.636;9.798;2022-07-04T01:49:06;96871.03;;;23.22;65.35
2761;BME280;15420;48.636;9.798;2022-07-04T01:51:35;96872.94;;;23.17;65.12
2761;BME280;15420;48.636;9.798;2022-07-04T01:54:04;96874.75;;;23.15;64.99
2761;BME280;15420;48.636;9.798;2022-07-04T01:56:30;96883.53;;;23.14;64.82
2761;BME280;15420;48.636;9.798;2022-07-04T01:58:58;96880.97;;;23.11;65.39
2761;BME280;15420;48.636;9.798;2022-07-04T02:01:25;96874.00;;;23.10;65.16
2761;BME280;15420;48.636;9.798;2022-07-04T02:04:01;96872.28;;;23.09;65.34
2761;BME280;15420;48.636;9.798;2022-07-04T02:06:29;96876.75;;;23.05;65.83
2761;BME280;15420;48.636;9.798;2022-07-04T02:08:55;96883.81;;;23.03;65.77
2761;BME280;15420;48.636;9.798;2022-07-04T02:11:41;96879.59;;;22.98;66.73
2761;BME280;15420;48.636;9.798;2022-07-04T02:14:26;96884.97;;;22.93;67.54
2761;BME280;15420;48.636;9.798;2022-07-04T02:16:52;96888.50;;;22.92;67.27
2761;BME280;15420;48.636;9.798;2022-07-04T02:19:21;96895.47;;;22.93;67.52
2761;BME280;15420;48.636;9.798;2022-07-04T02:21:53;96897.31;;;22.90;67.90
2761;BME280;15420;48.636;9.798;2022-07-04T02:24:19;96892.97;;;22.89;68.04
2761;BME280;15420;48.636;9.798;2022-07-04T02:26:47;96899.94;;;22.90;67.90
2761;BME280;15420;48.636;9.798;2022-07-04T02:29:13;96904.41;;;22.88;67.74
2761;BME280;15420;48.636;9.798;2022-07-04T02:31:39;96910.50;;;22.88;68.26
2761;BME280;15420;48.636;9.798;2022-07-04T02:34:10;96918.38;;;22.88;68.68
2761;BME280;15420;48.636;9.798;2022-07-04T02:36:39;96916.63;;;22.89;67.94
2761;BME280;15420;48.636;9.798;2022-07-04T02:39:07;96917.47;;;22.89;68.23
2761;BME280;15420;48.636;9.798;2022-07-04T02:41:38;96914.81;;;22.91;67.88
2761;BME280;15420;48.636;9.798;2022-07-04T02:44:09;96920.06;;;22.91;68.11
2761;BME280;15420;48.636;9.798;2022-07-04T02:46:36;96926.19;;;22.91;68.10
2761;BME280;15420;48.636;9.798;2022-07-04T02:49:03;96917.44;;;22.91;68.16
2761;BME280;15420;48.636;9.798;2022-07-04T02:51:29;96916.59;;;22.90;68.13
2761;BME280;15420;48.636;9.798;2022-07-04T02:53:58;96909.56;;;22.91;68.46
2761;BME280;15420;48.636;9.798;2022-07-04T02:56:24;96919.22;;;22.90;68.21
2761;BME280;15420;48.636;9.798;2022-07-04T02:58:50;96917.47;;;22.89;68.51
2761;BME280;15420;48.636;9.798;2022-07-04T03:01:17;96925.38;;;22.89;68.38
2761;BME280;15420;48.636;9.798;2022-07-04T03:03:45;96930.63;;;22.89;68.33
2761;BME280;15420;48.636;9.798;2022-07-04T03:06:14;96932.38;;;22.89;68.33
2761;BME280;15420;48.636;9.798;2022-07-04T03:08:41;96937.66;;;22.89;68.00
2761;BME280;15420;48.636;9.798;2022-07-04T03:11:07;96944.66;;;22.88;68.04
2761;BME280;15420;48.636;9.798;2022-07-04T03:13:36;96946.38;;;22.89;68.40
2761;BME280;15420;48.636;9.798;2022-07-04T03:16:03;96942.00;;;22.90;68.51
2761;BME280;15420;48.636;9.798;2022-07-04T03:18:32;96940.22;;;22.90;68.71
2761;BME280;15420;48.636;9.798;2022-07-04T03:20:58;96936.69;;;22.91;69.15
2761;BME280;15420;48.636;9.798;2022-07-04T03:23:24;96954.25;;;22.91;68.78
2761;BME280;15420;48.636;9.798;2022-07-04T03:25:52;96956.88;;;22.91;69.54
2761;BME280;15420;48.636;9.798;2022-07-04T03:28:21;96965.66;;;22.90;69.48
2761;BME280;15420;48.636;9.798;2022-07-04T03:30:47;96962.13;;;22.91;69.70
2761;BME280;15420;48.636;9.798;2022-07-04T03:33:13;96953.38;;;22.90;69.49
2761;BME280;15420;48.636;9.798;2022-07-04T03:35:42;96956.00;;;22.90;69.32
2761;BME280;15420;48.636;9.798;2022-07-04T03:38:11;96948.09;;;22.92;69.17
2761;BME280;15420;48.636;9.798;2022-07-04T03:40:37;96951.66;;;22.89;68.96
2761;BME280;15420;48.636;9.798;2022-07-04T03:43:04;96959.50;;;22.91;69.40
2761;BME280;15420;48.636;9.798;2022-07-04T03:45:34;96951.63;;;22.91;69.41
2761;BME280;15420;48.636;9.798;2022-07-04T03:48:00;96956.00;;;22.90;69.36
2761;BME280;15420;48.636;9.798;2022-07-04T03:50:29;96949.03;;;22.89;69.67
2761;BME280;15420;48.636;9.798;2022-07-04T03:52:55;96951.66;;;22.89;70.01
2761;BME280;15420;48.636;9.798;2022-07-04T03:55:21;96951.72;;;22.88;70.19
2761;BME280;15420;48.636;9.798;2022-07-04T03:57:50;96954.34;;;22.88;69.63
2761;BME280;15420;48.636;9.798;2022-07-04T04:00:17;96952.63;;;22.87;69.72
2761;BME280;15420;48.636;9.798;2022-07-04T04:02:43;96954.44;;;22.85;69.66
2761;BME280;15420;48.636;9.798;2022-07-04T04:05:09;96956.19;;;22.84;69.90
2761;BME280;15420;48.636;9.798;2022-07-04T04:07:58;96955.31;;;22.83;69.89
2761;BME280;15420;48.636;9.798;2022-07-04T04:10:26;96957.94;;;22.83;69.54
2761;BME280;15420;48.636;9.798;2022-07-04T04:12:53;96955.31;;;22.83;70.21
2761;BME280;15420;48.636;9.798;2022-07-04T04:15:19;96959.72;;;22.83;70.21
2761;BME280;15420;48.636;9.798;2022-07-04T04:17:50;96950.06;;;22.83;69.67
2761;BME280;15420;48.636;9.798;2022-07-04T04:20:16;96964.09;;;22.82;70.01
2761;BME280;15420;48.636;9.798;2022-07-04T04:22:42;96964.16;;;22.81;70.97
2761;BME280;15420;48.636;9.798;2022-07-04T04:25:09;96969.38;;;22.82;70.87
2761;BME280;15420;48.636;9.798;2022-07-04T04:27:35;96970.25;;;22.81;70.78
2761;BME280;15420;48.636;9.798;2022-07-04T04:30:02;96967.63;;;22.81;70.69
2761;BME280;15420;48.636;9.798;2022-07-04T04:32:28;96979.88;;;22.82;70.51
2761;BME280;15420;48.636;9.798;2022-07-04T04:34:54;96979.00;;;22.82;71.05
2761;BME280;15420;48.636;9.798;2022-07-04T04:37:20;96985.13;;;22.82;71.14
2761;BME280;15420;48.636;9.798;2022-07-04T04:39:49;96986.00;;;22.83;70.93
2761;BME280;15420;48.636;9.798;2022-07-04T04:42:17;96992.13;;;22.83;70.75
2761;BME280;15420;48.636;9.798;2022-07-04T04:44:48;96998.25;;;22.84;70.90
2761;BME280;15420;48.636;9.798;2022-07-04T04:47:18;96995.59;;;22.84;71.42
2761;BME280;15420;48.636;9.798;2022-07-04T04:49:44;96996.50;;;22.83;70.73
2761;BME280;15420;48.636;9.798;2022-07-04T04:52:10;96999.09;;;22.85;70.95
2761;BME280;15420;48.636;9.798;2022-07-04T04:54:37;97013.06;;;22.87;71.28
2761;BME280;15420;48.636;9.798;2022-07-04T04:57:06;97015.63;;;22.88;70.64
2761;BME280;15420;48.636;9.798;2022-07-04T04:59:32;97019.09;;;22.90;70.72
2761;BME280;15420;48.636;9.798;2022-07-04T05:01:59;97026.09;;;22.90;70.49
2761;BME280;15420;48.636;9.798;2022-07-04T05:04:25;97025.22;;;22.91;70.67
2761;BME280;15420;48.636;9.798;2022-07-04T05:06:54;97028.69;;;22.91;70.75
2761;BME280;15420;48.636;9.798;2022-07-04T05:09:20;97026.06;;;22.91;70.25
2761;BME280;15420;48.636;9.798;2022-07-04T05:11:47;97029.53;;;22.93;69.27
2761;BME280;15420;48.636;9.798;2022-07-04T05:14:16;97029.50;;;22.95;69.16
2761;BME280;15420;48.636;9.798;2022-07-04T05:16:45;97032.13;;;22.95;68.52
2761;BME280;15420;48.636;9.798;2022-07-04T05:19:11;97031.22;;;22.96;68.41
2761;BME280;15420;48.636;9.798;2022-07-04T05:21:40;97038.19;;;22.97;66.95
2761;BME280;15420;48.636;9.798;2022-07-04T05:24:07;97039.97;;;22.96;66.40
2761;BME280;15420;48.636;9.798;2022-07-04T05:26:33;97035.56;;;22.97;66.73
2761;BME280;15420;48.636;9.798;2022-07-04T05:29:02;97034.66;;;22.98;66.17
2761;BME280;15420;48.636;9.798;2022-07-04T05:31:33;97034.63;;;22.99;66.15
2761;BME280;15420;48.636;9.798;2022-07-04T05:33:59;97039.91;;;22.99;66.10
2761;BME280;15420;48.636;9.798;2022-07-04T05:36:28;97039.81;;;23.02;66.05
2761;BME280;15420;48.636;9.798;2022-07-04T05:38:54;97040.69;;;23.03;66.16
2761;BME280;15420;48.636;9.798;2022-07-04T05:41:20;97038.09;;;23.01;64.85
2761;BME280;15420;48.636;9.798;2022-07-04T05:43:46;97039.84;;;23.01;64.62
2761;BME280;15420;48.636;9.798;2022-07-04T05:46:13;97037.25;;;22.99;64.54
2761;BME280;15420;48.636;9.798;2022-07-04T05:48:39;97039.91;;;22.99;64.60
2761;BME280;15420;48.636;9.798;2022-07-04T05:51:07;97039.00;;;23.00;64.86
2761;BME280;15420;48.636;9.798;2022-07-04T05:53:33;97050.34;;;23.02;64.65
2761;BME280;15420;48.636;9.798;2022-07-04T05:55:59;97049.41;;;23.05;65.06
2761;BME280;15420;48.636;9.798;2022-07-04T05:58:26;97051.13;;;23.06;64.75
2761;BME280;15420;48.636;9.798;2022-07-04T06:00:54;97048.47;;;23.07;64.73
2761;BME280;15420;48.636;9.798;2022-07-04T06:03:20;97044.94;;;23.08;65.17
2761;BME280;15420;48.636;9.798;2022-07-04T06:05:47;97046.63;;;23.11;64.62
2761;BME280;15420;48.636;9.798;2022-07-04T06:08:13;97044.81;;;23.13;64.09
2761;BME280;15420;48.636;9.798;2022-07-04T06:10:42;97054.41;;;23.15;63.23
2761;BME280;15420;48.636;9.798;2022-07-04T06:13:13;97046.41;;;23.20;63.51
2761;BME280;15420;48.636;9.798;2022-07-04T06:15:39;97049.84;;;23.22;63.64
2761;BME280;15420;48.636;9.798;2022-07-04T06:18:06;97041.00;;;23.26;63.58
2761;BME280;15420;48.636;9.798;2022-07-04T06:20:32;97040.00;;;23.30;63.53
2761;BME280;15420;48.636;9.798;2022-07-04T06:22:58;97039.09;;;23.31;62.31
2761;BME280;15420;48.636;9.798;2022-07-04T06:25:24;97042.47;;;23.36;61.94
2761;BME280;15420;48.636;9.798;2022-07-04T06:27:53;97043.31;;;23.38;61.69
2761;BME280;15420;48.636;9.798;2022-07-04T06:30:21;97044.91;;;23.44;61.66
2761;BME280;15420;48.636;9.798;2022-07-04T06:32:55;97045.63;;;23.51;61.42
2761;BME280;15420;48.636;9.798;2022-07-04T06:35:27;97047.22;;;23.58;61.75
2761;BME280;15420;48.636;9.798;2022-07-04T06:38:14;97045.38;;;23.61;61.61
2761;BME280;15420;48.636;9.798;2022-07-04T06:40:41;97046.13;;;23.66;60.77
2761;BME280;15420;48.636;9.798;2022-07-04T06:43:08;97044.28;;;23.70;60.85
2761;BME280;15420;48.636;9.798;2022-07-04T06:45:34;97044.16;;;23.74;60.56
2761;BME280;15420;48.636;9.798;2022-07-04T06:48:06;97043.97;;;23.80;60.83
2761;BME280;15420;48.636;9.798;2022-07-04T06:50:33;97047.31;;;23.87;60.43
2761;BME280;15420;48.636;9.798;2022-07-04T06:53:04;97041.97;;;23.90;60.01
2761;BME280;15420;48.636;9.798;2022-07-04T06:58:03;97034.72;;;23.97;58.93
2761;BME280;15420;48.636;9.798;2022-07-04T07:00:29;97028.56;;;23.98;58.67
2761;BME280;15420;48.636;9.798;2022-07-04T07:02:59;97029.28;;;24.03;58.81
2761;BME280;15420;48.636;9.798;2022-07-04T07:05:31;97028.34;;;24.05;58.72
2761;BME280;15420;48.636;9.798;2022-07-04T07:07:57;97026.53;;;24.07;58.05
2761;BME280;15420;48.636;9.798;2022-07-04T07:10:25;97035.28;;;24.08;58.31
2761;BME280;15420;48.636;9.798;2022-07-04T07:12:59;97045.72;;;24.11;58.81
2761;BME280;15420;48.636;9.798;2022-07-04T07:15:25;97043.88;;;24.14;58.84
2761;BME280;15420;48.636;9.798;2022-07-04T07:17:51;97038.47;;;24.19;59.51
2761;BME280;15420;48.636;9.798;2022-07-04T07:20:20;97041.88;;;24.23;58.73
2761;BME280;15420;48.636;9.798;2022-07-04T07:22:46;97035.66;;;24.25;58.44
2761;BME280;15420;48.636;9.798;2022-07-04T07:25:12;97032.97;;;24.28;58.81
2761;BME280;15420;48.636;9.798;2022-07-04T07:27:39;97028.53;;;24.30;59.05
2761;BME280;15420;48.636;9.798;2022-07-04T07:30:09;97022.22;;;24.36;58.81
2761;BME280;15420;48.636;9.798;2022-07-04T07:32:36;97022.13;;;24.39;58.51
2761;BME280;15420;48.636;9.798;2022-07-04T07:35:02;97022.00;;;24.43;58.83
2761;BME280;15420;48.636;9.798;2022-07-04T07:37:28;97019.31;;;24.45;59.06
2761;BME280;15420;48.636;9.798;2022-07-04T07:39:57;97018.31;;;24.49;59.11
2761;BME280;15420;48.636;9.798;2022-07-04T07:42:25;97015.56;;;24.52;59.13
2761;BME280;15420;48.636;9.798;2022-07-04T07:44:51;97013.75;;;24.54;58.94
2761;BME280;15420;48.636;9.798;2022-07-04T07:47:18;97011.84;;;24.59;58.21
2761;BME280;15420;48.636;9.798;2022-07-04T07:49:44;97020.47;;;24.64;58.74
2761;BME280;15420;48.636;9.798;2022-07-04T07:52:17;97012.53;;;24.66;58.25
2761;BME280;15420;48.636;9.798;2022-07-04T07:54:46;97016.72;;;24.71;58.05
2761;BME280;15420;48.636;9.798;2022-07-04T07:57:14;97014.81;;;24.76;58.08
2761;BME280;15420;48.636;9.798;2022-07-04T07:59:40;97013.72;;;24.84;57.54
2761;BME280;15420;48.636;9.798;2022-07-04T08:02:16;97005.66;;;24.88;58.06
2761;BME280;15420;48.636;9.798;2022-07-04T08:04:45;97001.19;;;24.90;57.14
2761;BME280;15420;48.636;9.798;2022-07-04T08:07:19;97000.09;;;24.97;57.77
2761;BME280;15420;48.636;9.798;2022-07-04T08:09:45;97003.38;;;25.04;57.04
2761;BME280;15420;48.636;9.798;2022-07-04T08:12:11;97005.88;;;25.08;57.67
2761;BME280;15420;48.636;9.798;2022-07-04T08:14:37;97004.72;;;25.17;56.57
2761;BME280;15420;48.636;9.798;2022-07-04T08:17:03;96993.16;;;25.21;57.00
2761;BME280;15420;48.636;9.798;2022-07-04T08:19:32;96994.72;;;25.27;57.01
2761;BME280;15420;48.636;9.798;2022-07-04T08:21:58;96992.72;;;25.33;56.49
2761;BME280;15420;48.636;9.798;2022-07-04T08:24:24;96988.16;;;25.38;55.64
2761;BME280;15420;48.636;9.798;2022-07-04T08:26:53;96978.19;;;25.47;56.06
2761;BME280;15420;48.636;9.798;2022-07-04T08:29:21;96976.31;;;25.50;55.41
2761;BME280;15420;48.636;9.798;2022-07-04T08:31:50;96977.97;;;25.53;55.66
2761;BME280;15420;48.636;9.798;2022-07-04T08:34:21;96970.88;;;25.55;55.68
2761;BME280;15420;48.636;9.798;2022-07-04T08:36:52;96970.00;;;25.54;55.96
2761;BME280;15420;48.636;9.798;2022-07-04T08:39:20;96972.53;;;25.57;54.98
2761;BME280;15420;48.636;9.798;2022-07-04T08:41:47;96971.50;;;25.61;55.30
2761;BME280;15420;48.636;9.798;2022-07-04T08:44:15;96989.81;;;25.67;54.50
2761;BME280;15420;48.636;9.798;2022-07-04T08:46:45;96986.25;;;25.68;55.49
2761;BME280;15420;48.636;9.798;2022-07-04T08:49:38;96994.06;;;25.71;55.05
2761;BME280;15420;48.636;9.798;2022-07-04T08:52:06;97001.19;;;25.69;54.77
2761;BME280;15420;48.636;9.798;2022-07-04T08:54:35;97003.97;;;25.65;55.29
2761;BME280;15420;48.636;9.798;2022-07-04T08:57:26;97007.47;;;25.65;55.02
2761;BME280;15420;48.636;9.798;2022-07-04T09:00:14;97019.94;;;25.60;55.26
2761;BME280;15420;48.636;9.798;2022-07-04T09:02:40;97019.94;;;25.60;55.57
2761;BME280;15420;48.636;9.798;2022-07-04T09:05:07;97020.16;;;25.54;54.70
2761;BME280;15420;48.636;9.798;2022-07-04T09:07:33;97014.06;;;25.52;55.49
2761;BME280;15420;48.636;9.798;2022-07-04T09:10:03;97022.16;;;25.48;55.32
2761;BME280;15420;48.636;9.798;2022-07-04T09:12:29;97015.09;;;25.48;55.77
2761;BME280;15420;48.636;9.798;2022-07-04T09:14:55;97029.97;;;25.51;55.48
2761;BME280;15420;48.636;9.798;2022-07-04T09:17:22;97037.81;;;25.52;55.84
2761;BME280;15420;48.636;9.798;2022-07-04T09:20:11;97041.22;;;25.56;55.36
2761;BME280;15420;48.636;9.798;2022-07-04T09:22:40;97039.50;;;25.55;56.22
2761;BME280;15420;48.636;9.798;2022-07-04T09:25:09;97040.41;;;25.54;56.56
2761;BME280;15420;48.636;9.798;2022-07-04T09:27:40;97049.19;;;25.54;55.80
2761;BME280;15420;48.636;9.798;2022-07-04T09:30:11;97048.22;;;25.57;56.15
2761;BME280;15420;48.636;9.798;2022-07-04T09:32:45;97051.63;;;25.60;55.77
2761;BME280;15420;48.636;9.798;2022-07-04T09:35:15;97052.44;;;25.62;56.05
2761;BME280;15420;48.636;9.798;2022-07-04T09:37:46;97061.91;;;25.69;55.80
2761;BME280;15420;48.636;9.798;2022-07-04T09:40:36;97053.72;;;25.77;55.42
2761;BME280;15420;48.636;9.798;2022-07-04T09:43:22;97055.34;;;25.81;55.74
2761;BME280;15420;48.636;9.798;2022-07-04T09:45:59;97051.50;;;25.90;55.05
2761;BME280;15420;48.636;9.798;2022-07-04T09:48:51;97049.25;;;26.02;55.26
2761;BME280;15420;48.636;9.798;2022-07-04T09:54:13;97054.00;;;26.18;54.78
2761;BME280;15420;48.636;9.798;2022-07-04T09:56:47;97058.13;;;26.25;54.06
2761;BME280;15420;48.636;9.798;2022-07-04T09:59:18;97059.59;;;26.33;54.38
2761;BME280;15420;48.636;9.798;2022-07-04T10:01:44;97060.47;;;26.34;53.43
2761;BME280;15420;48.636;9.798;2022-07-04T10:04:10;97057.81;;;26.34;53.22
2761;BME280;15420;48.636;9.798;2022-07-04T10:06:40;97067.47;;;26.35;53.87
2761;BME280;15420;48.636;9.798;2022-07-04T10:09:16;97065.81;;;26.32;53.08
2761;BME280;15420;48.636;9.798;2022-07-04T10:11:45;97068.66;;;26.26;53.25
2761;BME280;15420;48.636;9.798;2022-07-04T10:14:13;97059.03;;;26.24;53.30
2761;BME280;15420;48.636;9.798;2022-07-04T10:16:41;97057.31;;;26.23;53.40
2761;BME280;15420;48.636;9.798;2022-07-04T10:19:08;97058.28;;;26.20;53.29
2761;BME280;15420;48.636;9.798;2022-07-04T10:21:35;97059.22;;;26.19;53.91
2761;BME280;15420;48.636;9.798;2022-07-04T10:24:02;97059.22;;;26.19;53.15
2761;BME280;15420;48.636;9.798;2022-07-04T10:26:29;97053.88;;;26.21;53.34
2761;BME280;15420;48.636;9.798;2022-07-04T10:28:59;97048.47;;;26.24;53.08
2761;BME280;15420;48.636;9.798;2022-07-04T10:31:29;97046.53;;;26.29;53.32
2761;BME280;15420;48.636;9.798;2022-07-04T10:33:56;97051.56;;;26.36;52.88
2761;BME280;15420;48.636;9.798;2022-07-04T10:36:24;97037.31;;;26.41;52.49
2761;BME280;15420;48.636;9.798;2022-07-04T10:39:04;97035.06;;;26.53;52.78
2761;BME280;15420;48.636;9.798;2022-07-04T10:41:31;97037.88;;;26.72;52.36
2761;BME280;15420;48.636;9.798;2022-07-04T10:51:37;97035.59;;;27.71;48.22
2761;BME280;15420;48.636;9.798;2022-07-04T10:54:13;97044.41;;;27.91;47.76
2761;BME280;15420;48.636;9.798;2022-07-04T10:59:10;97039.19;;;28.29;44.54
2761;BME280;15420;48.636;9.798;2022-07-04T11:01:37;97039.69;;;28.37;43.51
2761;BME280;15420;48.636;9.798;2022-07-04T11:04:03;97043.72;;;28.46;43.20
2761;BME280;15420;48.636;9.798;2022-07-04T11:09:18;97042.59;;;28.70;41.99
2761;BME280;15420;48.636;9.798;2022-07-04T11:19:37;97030.84;;;29.65;39.57
2761;BME280;15420;48.636;9.798;2022-07-04T11:22:07;97021.63;;;29.89;39.19
2761;BME280;15420;48.636;9.798;2022-07-04T11:24:37;97022.94;;;30.15;37.64
2761;BME280;15420;48.636;9.798;2022-07-04T11:27:09;97015.94;;;30.46;37.82
2761;BME280;15420;48.636;9.798;2022-07-04T11:29:35;97015.31;;;30.74;37.19
2761;BME280;15420;48.636;9.798;2022-07-04T11:32:01;97011.19;;;31.00;36.57
2761;BME280;15420;48.636;9.798;2022-07-04T11:34:32;97004.09;;;31.30;36.99
2761;BME280;15420;48.636;9.798;2022-07-04T11:37:01;97001.03;;;31.52;36.12
2761;BME280;15420;48.636;9.798;2022-07-04T11:39:30;96996.94;;;31.76;36.34
2761;BME280;15420;48.636;9.798;2022-07-04T11:41:57;96999.63;;;32.05;35.88
2761;BME280;15420;48.636;9.798;2022-07-04T11:44:44;96996.31;;;32.30;34.49
2761;BME280;15420;48.636;9.798;2022-07-04T11:50:04;96995.41;;;32.86;34.12
2761;BME280;15420;48.636;9.798;2022-07-04T11:55:14;96998.50;;;33.46;33.49
2761;BME280;15420;48.636;9.798;2022-07-04T11:57:45;96989.56;;;33.73;33.38
2761;BME280;15420;48.636;9.798;2022-07-04T12:00:15;96988.66;;;33.99;33.21
2761;BME280;15420;48.636;9.798;2022-07-04T12:02:42;96982.91;;;34.31;32.91
2761;BME280;15420;48.636;9.798;2022-07-04T12:05:12;96990.34;;;34.51;32.15
2761;BME280;15420;48.636;9.798;2022-07-04T12:07:42;96995.66;;;34.64;31.67
2761;BME280;15420;48.636;9.798;2022-07-04T12:12:35;96992.31;;;34.86;30.74
2761;BME280;15420;48.636;9.798;2022-07-04T12:15:08;96988.69;;;35.11;31.08
2761;BME280;15420;48.636;9.798;2022-07-04T12:17:38;96978.09;;;35.33;30.92
2761;BME280;15420;48.636;9.798;2022-07-04T12:22:40;96978.34;;;35.76;29.83
2761;BME280;15420;48.636;9.798;2022-07-04T12:25:20;96979.97;;;35.90;29.55
2761;BME280;15420;48.636;9.798;2022-07-04T12:27:58;96975.97;;;36.07;29.74
2761;BME280;15420;48.636;9.798;2022-07-04T12:30:26;96973.69;;;36.24;29.54
2761;BME280;15420;48.636;9.798;2022-07-04T12:32:58;96970.13;;;36.46;29.35
2761;BME280;15420;48.636;9.798;2022-07-04T12:48:53;96944.59;;;38.12;27.05
2761;BME280;15420;48.636;9.798;2022-07-04T12:51:27;96947.97;;;38.35;26.77
2761;BME280;15420;48.636;9.798;2022-07-04T12:53:57;96954.41;;;38.53;26.69
2761;BME280;15420;48.636;9.798;2022-07-04T12:59:14;96940.91;;;38.93;26.01
2761;BME280;15420;48.636;9.798;2022-07-04T13:01:46;96937.56;;;39.10;25.84
2761;BME280;15420;48.636;9.798;2022-07-04T13:04:14;96931.59;;;39.26;25.58
2761;BME280;15420;48.636;9.798;2022-07-04T13:06:42;96933.44;;;39.45;25.51
2761;BME280;15420;48.636;9.798;2022-07-04T13:09:11;96924.19;;;39.67;25.25
2761;BME280;15420;48.636;9.798;2022-07-04T13:11:40;96926.69;;;39.87;25.19
2761;BME280;15420;48.636;9.798;2022-07-04T13:14:24;96928.13;;;40.01;25.04
2761;BME280;15420;48.636;9.798;2022-07-04T13:16:51;96923.69;;;40.10;24.71
2761;BME280;15420;48.636;9.798;2022-07-04T13:19:17;96925.44;;;40.29;25.10
2761;BME280;15420;48.636;9.798;2022-07-04T13:21:44;96916.34;;;40.39;24.29
2761;BME280;15420;48.636;9.798;2022-07-04T13:24:13;96920.91;;;40.57;24.44
2761;BME280;15420;48.636;9.798;2022-07-04T13:26:39;96904.44;;;40.77;24.08
2761;BME280;15420;48.636;9.798;2022-07-04T13:29:06;96906.84;;;40.80;23.77
2761;BME280;15420;48.636;9.798;2022-07-04T13:31:41;96904.19;;;40.71;23.81
2761;BME280;15420;48.636;9.798;2022-07-04T13:34:17;96908.09;;;40.86;24.30
2761;BME280;15420;48.636;9.798;2022-07-04T13:36:47;96906.16;;;40.96;23.31
2761;BME280;15420;48.636;9.798;2022-07-04T13:39:13;96912.84;;;41.20;23.64
2761;BME280;15420;48.636;9.798;2022-07-04T13:41:40;96907.19;;;41.48;23.95
2761;BME280;15420;48.636;9.798;2022-07-04T13:44:07;96904.97;;;41.70;23.04
2761;BME280;15420;48.636;9.798;2022-07-04T13:46:34;96909.22;;;41.98;23.03
2761;BME280;15420;48.636;9.798;2022-07-04T13:49:04;96902.66;;;42.27;22.80
2761;BME280;15420;48.636;9.798;2022-07-04T13:51:30;96901.97;;;42.59;22.99
2761;BME280;15420;48.636;9.798;2022-07-04T13:54:02;96907.56;;;42.73;21.99
2761;BME280;15420;48.636;9.798;2022-07-04T13:56:29;96914.44;;;42.43;21.64
2761;BME280;15420;48.636;9.798;2022-07-04T13:58:55;96906.66;;;42.15;21.89
2761;BME280;15420;48.636;9.798;2022-07-04T14:01:21;96903.50;;;41.75;22.48
2761;BME280;15420;48.636;9.798;2022-07-04T14:03:51;96897.69;;;41.44;22.93
2761;BME280;15420;48.636;9.798;2022-07-04T14:06:20;96904.03;;;41.35;22.86
2761;BME280;15420;48.636;9.798;2022-07-04T14:08:46;96900.69;;;41.41;22.70
2761;BME280;15420;48.636;9.798;2022-07-04T14:11:14;96888.63;;;41.36;23.15